D/T METAR WX W/DIR W/SPE G/SPE TEMP DEWP
5/06/20 07:50 EGPU 050650Z AUTO 34020KT 9999 FEW027/// 09/04 Q1000 NNW (340°) 23.0mph 9°C 4°C
5/06/20 07:20 EGPU 050620Z AUTO 35021KT 9999 FEW031/// 09/03 Q1000 N (350°) 24.2mph 9°C 3°C
5/06/20 06:50 EGPU 050550Z AUTO 35023KT 320V030 9999 FEW027/// 09/03 Q1000 N (350°) 26.5mph 9°C 3°C
5/06/20 06:20 EGPU 050520Z AUTO VRB22KT 9999 FEW028/// SCT039/// 09/03 Q1000 N (0°) 25.3mph 9°C 3°C
5/06/20 05:50 EGPU 050450Z AUTO 35020KT 9999 SCT025/// 08/04 Q1000 N (350°) 23.0mph 8°C 4°C
5/06/20 05:20 EGPU 050420Z AUTO 35018KT 320V020 9999 FEW024/// SCT036/// 08/04 Q1000 RERA N (350°) 20.7mph 8°C 4°C
5/06/20 04:50 EGPU 050350Z AUTO VRB19KT 9999 FEW021/// SCT038/// 08/04 Q1000 RERA N (0°) 21.9mph 8°C 4°C
5/06/20 04:20 EGPU 050320Z AUTO 36018KT 9999 FEW026/// 08/04 Q1000 N (360°) 20.7mph 8°C 4°C
5/06/20 03:50 EGPU 050250Z AUTO 34016KT 310V010 9999 NCD 08/04 Q1000 NNW (340°) 18.4mph 8°C 4°C
5/06/20 03:20 EGPU 050220Z AUTO 34017KT 9999 NCD 08/05 Q1000 NNW (340°) 19.6mph 8°C 5°C
5/06/20 02:50 EGPU 050150Z AUTO 35012KT 9999 FEW041/// 08/05 Q1001 RERA N (350°) 13.8mph 8°C 5°C
5/06/20 02:20 EGPU 050120Z AUTO 01019KT 9999 SCT020/// BKN035/// 07/05 Q1001 RERA N (10°) 21.9mph 7°C 5°C
5/06/20 01:50 EGPU 050050Z AUTO 01017KT 340V090 9999 FEW023/// BKN045/// 09/05 Q1001 RERA N (10°) 19.6mph 9°C 5°C
5/06/20 01:20 EGPU 050020Z AUTO 36015KT 240V030 9999 -RA BKN045/// 08/05 Q1001 -RA N (360°) 17.3mph 8°C 5°C
5/06/20 00:50 EGPU 042350Z AUTO 36016KT 9999 BKN044/// 08/04 Q1001 RERA N (360°) 18.4mph 8°C 4°C
5/06/20 00:20 EGPU 042320Z AUTO 36021KT 340V060 9999 FEW024/// 09/05 Q1002 RERA N (360°) 24.2mph 9°C 5°C
4/06/20 23:50 EGPU 042250Z AUTO 36017KT 290V030 9999 FEW024/// 09/05 Q1002 RERA N (360°) 19.6mph 9°C 5°C
4/06/20 23:20 EGPU 042220Z AUTO 01013KT 9999 -RADZ FEW027/// SCT033/// 09/05 Q1002 -RA -DZ N (10°) 15.0mph 9°C 5°C
4/06/20 22:50 EGPU 042150Z AUTO 01016KT 9999 FEW024/// 09/05 Q1002 N (10°) 18.4mph 9°C 5°C
4/06/20 22:20 EGPU 042120Z AUTO 01015KT 9999 FEW024/// SCT045/// 09/05 Q1002 N (10°) 17.3mph 9°C 5°C
4/06/20 21:50 EGPU 042050Z AUTO 01017KT 9999 NCD 10/05 Q1002 N (10°) 19.6mph 10°C 5°C
4/06/20 21:20 EGPU 042020Z AUTO 01018KT 9999 NCD 10/05 Q1002 N (10°) 20.7mph 10°C 5°C
4/06/20 20:50 EGPU 041950Z AUTO 01018KT 340V070 9999 NCD 10/05 Q1002 N (10°) 20.7mph 10°C 5°C
4/06/20 20:20 EGPU 041920Z AUTO VRB19KT 9999 NCD 10/05 Q1002 N (0°) 21.9mph 10°C 5°C
4/06/20 19:50 EGPU 041850Z AUTO 01018KT 9999 NCD 11/06 Q1002 N (10°) 20.7mph 11°C 6°C
4/06/20 19:20 EGPU 041820Z AUTO 01017KT 340V070 9999 NCD 11/06 Q1002 N (10°) 19.6mph 11°C 6°C
4/06/20 18:50 EGPU 041750Z AUTO 01017KT 340V050 9999 NCD 11/06 Q1002 N (10°) 19.6mph 11°C 6°C
4/06/20 18:20 EGPU 041720Z AUTO 36018KT 330V030 9999 FEW042/// 11/06 Q1002 N (360°) 20.7mph 11°C 6°C
4/06/20 17:50 EGPU 041650Z AUTO 36016KT 330V120 9999 NCD 11/07 Q1002 N (360°) 18.4mph 11°C 7°C
4/06/20 17:20 EGPU 041620Z AUTO 36017KT 250V030 9999 BKN049/// 11/07 Q1002 N (360°) 19.6mph 11°C 7°C
4/06/20 16:50 EGPU 041550Z AUTO 35016KT 9999 SCT048/// 12/08 Q1002 N (350°) 18.4mph 12°C 8°C
4/06/20 16:20 EGPU 041520Z AUTO 34016KT 300V360 9999 SCT017/// 12/08 Q1002 NNW (340°) 18.4mph 12°C 8°C
4/06/20 15:50 EGPU 041450Z AUTO 35016KT 330V040 9999 NCD 13/07 Q1003 N (350°) 18.4mph 13°C 7°C
4/06/20 15:20 EGPU 041420Z AUTO 35015KT 9999 NCD 12/07 Q1003 N (350°) 17.3mph 12°C 7°C
4/06/20 14:50 EGPU 041350Z AUTO 36016KT 260V020 9999 SCT037/// 12/08 Q1003 N (360°) 18.4mph 12°C 8°C
4/06/20 14:20 EGPU 041320Z AUTO 36017KT 330V110 9999 BKN035/// 11/08 Q1003 N (360°) 19.6mph 11°C 8°C
4/06/20 13:50 EGPU 041250Z AUTO 34014KT 320V020 9999 SCT025/// 12/07 Q1003 NNW (340°) 16.1mph 12°C 7°C
4/06/20 13:20 EGPU 041220Z AUTO 34013KT 9999 FEW021/// SCT032/// 11/08 Q1003 NNW (340°) 15.0mph 11°C 8°C
4/06/20 12:50 EGPU 041150Z AUTO 36015KT 220V020 9999 SCT021/// 12/08 Q1004 N (360°) 17.3mph 12°C 8°C
4/06/20 12:20 EGPU 041120Z AUTO 01016KT 340V040 9999 FEW023/// SCT030/// 11/09 Q1004 N (10°) 18.4mph 11°C 9°C
4/06/20 11:50 EGPU 041050Z AUTO 35014KT 330V140 9999 BKN037/// 13/09 Q1004 N (350°) 16.1mph 13°C 9°C
4/06/20 11:20 EGPU 041020Z 01015KT 9999 SCT027 SCT035 12/08 Q1004 N (10°) 17.3mph 12°C 8°C
4/06/20 10:50 EGPU 040950Z 34016KT 9999 SCT011 BKN048 12/09 Q1004 NNW (340°) 18.4mph 12°C 9°C
4/06/20 10:20 EGPU 040920Z 33015KT 9999 SCT012 BKN045 12/09 Q1004 NNW (330°) 17.3mph 12°C 9°C
4/06/20 09:50 EGPU 040850Z 34014KT 9999 SCT013 SCT019 BKN045 12/09 Q1004 NNW (340°) 16.1mph 12°C 9°C
4/06/20 09:20 EGPU 040820Z 34014KT 9999 SCT012 BKN045 12/09 Q1004 NNW (340°) 16.1mph 12°C 9°C
4/06/20 08:50 EGPU 040750Z 34012KT 9999 SCT011 BKN047 11/09 Q1005 NNW (340°) 13.8mph 11°C 9°C
4/06/20 08:20 EGPU 040720Z AUTO 34013KT 9999 FEW011/// SCT018/// BKN044/// 11/09 Q1005 NNW (340°) 15.0mph 11°C 9°C
4/06/20 07:50 EGPU 040650Z AUTO 34012KT 300V360 9999 BKN027/// SCT048/// 10/08 Q1005 NNW (340°) 13.8mph 10°C 8°C
4/06/20 07:20 EGPU 040620Z AUTO 33012KT 300V360 9999 FEW022/// 11/09 Q1006 NNW (330°) 13.8mph 11°C 9°C
4/06/20 06:50 EGPU 040550Z AUTO 32011KT 9999 NCD 10/09 Q1006 RERA NW (320°) 12.7mph 10°C 9°C
4/06/20 06:20 EGPU 040520Z AUTO 32015KT 9999 FEW011/// SCT018/// 10/09 Q1006 RERA NW (320°) 17.3mph 10°C 9°C
4/06/20 05:50 EGPU 040450Z AUTO 32009KT 9999 FEW018/// BKN041/// 10/09 Q1007 RERA NW (320°) 10.4mph 10°C 9°C
4/06/20 05:20 EGPU 040420Z AUTO 30010KT 4800 BR FEW006/// BKN018/// 10/09 Q1007 BR WNW (300°) 11.5mph 10°C 9°C
4/06/20 04:50 EGPU 040350Z AUTO 30012KT 1400 HZ FEW011/// SCT018/// 10/09 Q1008 HZ WNW (300°) 13.8mph 10°C 9°C
4/06/20 04:20 EGPU 040320Z AUTO 30009KT 9999 FEW010/// 10/09 Q1008 RERA WNW (300°) 10.4mph 10°C 9°C
4/06/20 03:50 EGPU 040250Z AUTO 30008KT 9999 FEW027/// BKN049/// 09/09 Q1009 RERA WNW (300°) 9.2mph 9°C 9°C
4/06/20 03:20 EGPU 040220Z AUTO 31009KT 280V340 1900 -DZ FEW008/// BKN023/// BKN039/// 10/09 Q1009 -DZ NW (310°) 10.4mph 10°C 9°C
4/06/20 02:50 EGPU 040150Z AUTO 31007KT 280V340 9999 FEW007/// BKN037/// 09/08 Q1010 RERA NW (310°) 8.1mph 9°C 8°C
4/06/20 02:20 EGPU 040120Z AUTO 31011KT 2200 HZ FEW011/// BKN019/// 10/08 Q1011 RERA HZ NW (310°) 12.7mph 10°C 8°C
4/06/20 01:50 EGPU 040050Z AUTO 31007KT 9999 FEW011/// BKN039/// 10/08 Q1011 NW (310°) 8.1mph 10°C 8°C
4/06/20 01:20 EGPU 040020Z AUTO 33008KT 9999 FEW012/// BKN024/// 10/08 Q1012 NNW (330°) 9.2mph 10°C 8°C
4/06/20 00:50 EGPU 032350Z AUTO 32008KT 9999 BKN023/// SCT031/// 10/07 Q1013 NW (320°) 9.2mph 10°C 7°C
4/06/20 00:20 EGPU 032320Z AUTO 32010KT 9999 FEW049/// 10/07 Q1013 NW (320°) 11.5mph 10°C 7°C
3/06/20 23:50 EGPU 032250Z AUTO 33009KT 9999 NCD 10/07 Q1013 NNW (330°) 10.4mph 10°C 7°C
3/06/20 23:20 EGPU 032220Z AUTO 34010KT 9999 FEW034/// 10/07 Q1014 NNW (340°) 11.5mph 10°C 7°C
3/06/20 22:50 EGPU 032150Z AUTO 34013KT 300V360 9999 FEW048/// 10/07 Q1014 NNW (340°) 15.0mph 10°C 7°C
3/06/20 22:20 EGPU 032120Z AUTO 34012KT 9999 NCD 10/06 Q1015 NNW (340°) 13.8mph 10°C 6°C
3/06/20 21:50 EGPU 032050Z AUTO 35011KT 9999 NCD 10/06 Q1015 N (350°) 12.7mph 10°C 6°C
3/06/20 21:20 EGPU 032020Z AUTO 35015KT 9999 NCD 10/07 Q1016 N (350°) 17.3mph 10°C 7°C
3/06/20 20:50 EGPU 031950Z AUTO 35013KT 9999 NCD 11/06 Q1016 N (350°) 15.0mph 11°C 6°C
3/06/20 20:20 EGPU 031920Z AUTO 35014KT 9999 NCD 11/05 Q1016 N (350°) 16.1mph 11°C 5°C
3/06/20 19:50 EGPU 031850Z AUTO 36014KT 340V040 9999 NCD 11/07 Q1016 N (360°) 16.1mph 11°C 7°C
3/06/20 19:20 EGPU 031820Z AUTO VRB16KT 9999 NCD 11/07 Q1016 N (0°) 18.4mph 11°C 7°C
3/06/20 18:50 EGPU 031750Z AUTO 01016KT 9999 FEW045/// 11/07 Q1016 N (10°) 18.4mph 11°C 7°C
3/06/20 18:20 EGPU 031720Z AUTO 01016KT 9999 BKN042/// 11/07 Q1017 N (10°) 18.4mph 11°C 7°C
3/06/20 17:50 EGPU 031650Z AUTO 36018KT 340V100 9999 NCD 11/06 Q1017 N (360°) 20.7mph 11°C 6°C
3/06/20 17:20 EGPU 031620Z AUTO 36019KT 9999 FEW046/// 12/06 Q1017 N (360°) 21.9mph 12°C 6°C
3/06/20 16:50 EGPU 031550Z AUTO 01019KT 290V050 9999 FEW047/// 12/08 Q1017 N (10°) 21.9mph 12°C 8°C
3/06/20 16:20 EGPU 031520Z AUTO 36021KT 9999 NCD 12/07 Q1018 N (360°) 24.2mph 12°C 7°C
3/06/20 15:50 EGPU 031450Z AUTO VRB19KT 9999 NCD 12/06 Q1018 N (0°) 21.9mph 12°C 6°C
3/06/20 15:20 EGPU 031420Z AUTO 36021KT 260V040 9999 NCD 13/07 Q1018 N (360°) 24.2mph 13°C 7°C
3/06/20 14:50 EGPU 031350Z 36021KT 9999 FEW042 13/06 Q1018 N (360°) 24.2mph 13°C 6°C
3/06/20 13:50 EGPU 031250Z 01019KT 300V030 9999 FEW029 SCT043 13/08 Q1018 N (10°) 21.9mph 13°C 8°C
3/06/20 13:20 EGPU 031220Z 01020KT 9999 FEW042 13/07 Q1019 N (10°) 23.0mph 13°C 7°C
3/06/20 11:50 EGPU 031050Z AUTO 01019KT 9999 BKN046/// 13/07 Q1019 N (10°) 21.9mph 13°C 7°C
3/06/20 11:20 EGPU 031020Z AUTO 01018KT 9999 BKN044/// 12/07 Q1019 N (10°) 20.7mph 12°C 7°C
3/06/20 10:50 EGPU 030950Z AUTO 02020KT 9999 BKN039/// 11/07 Q1019 NNE (20°) 23.0mph 11°C 7°C
3/06/20 10:20 EGPU 030920Z AUTO 01019KT 9999 FEW024/// BKN034/// 11/06 Q1019 N (10°) 21.9mph 11°C 6°C
3/06/20 09:50 EGPU 030850Z 01019KT 9999 FEW028 SCT044 12/07 Q1020 N (10°) 21.9mph 12°C 7°C
3/06/20 09:20 EGPU 030820Z 02020KT 9999 FEW029 SCT045 11/07 Q1020 NNE (20°) 23.0mph 11°C 7°C
3/06/20 08:50 EGPU 030750Z AUTO 02020KT 9999 BKN045/// 11/07 Q1019 NNE (20°) 23.0mph 11°C 7°C
3/06/20 08:20 EGPU 030720Z AUTO 02021KT 9999 BKN042/// 10/06 Q1019 NNE (20°) 24.2mph 10°C 6°C
3/06/20 07:50 EGPU 030650Z AUTO 02023KT 9999 SCT044/// 11/07 Q1020 NNE (20°) 26.5mph 11°C 7°C
3/06/20 07:20 EGPU 030620Z AUTO 02020KT 9999 NCD 10/06 Q1019 NNE (20°) 23.0mph 10°C 6°C
3/06/20 06:50 EGPU 030550Z AUTO 03018KT 9999 NCD 10/06 Q1019 NNE (30°) 20.7mph 10°C 6°C